sensor_id;sensor_type;location;lat;lon;timestamp;temperature;humidity
15298;DHT22;7750;48.796;9.026;2022-08-19T00:04:31;24.70;59.90
15298;DHT22;7750;48.796;9.026;2022-08-19T00:09:33;24.70;60.10
15298;DHT22;7750;48.796;9.026;2022-08-19T00:14:34;24.60;60.10
15298;DHT22;7750;48.796;9.026;2022-08-19T00:19:35;24.60;60.30
15298;DHT22;7750;48.796;9.026;2022-08-19T00:24:36;24.60;60.30
15298;DHT22;7750;48.796;9.026;2022-08-19T00:29:38;24.50;60.50
15298;DHT22;7750;48.796;9.026;2022-08-19T00:34:39;24.50;60.50
15298;DHT22;7750;48.796;9.026;2022-08-19T00:39:40;24.40;60.80
15298;DHT22;7750;48.796;9.026;2022-08-19T00:44:41;24.40;60.70
15298;DHT22;7750;48.796;9.026;2022-08-19T00:49:46;24.40;60.80
15298;DHT22;7750;48.796;9.026;2022-08-19T00:54:51;24.40;61.10
15298;DHT22;7750;48.796;9.026;2022-08-19T00:59:55;24.40;61.00
15298;DHT22;7750;48.796;9.026;2022-08-19T01:04:56;24.40;61.10
15298;DHT22;7750;48.796;9.026;2022-08-19T01:09:57;24.40;61.20
15298;DHT22;7750;48.796;9.026;2022-08-19T01:14:58;24.40;61.20
15298;DHT22;7750;48.796;9.026;2022-08-19T01:19:59;24.40;61.30
15298;DHT22;7750;48.796;9.026;2022-08-19T01:25:01;24.40;61.40
15298;DHT22;7750;48.796;9.026;2022-08-19T01:30:02;24.30;61.50
15298;DHT22;7750;48.796;9.026;2022-08-19T01:35:04;24.30;61.60
15298;DHT22;7750;48.796;9.026;2022-08-19T01:40:05;24.20;61.70
15298;DHT22;7750;48.796;9.026;2022-08-19T01:45:07;24.20;62.00
15298;DHT22;7750;48.796;9.026;2022-08-19T01:50:10;24.20;62.10
15298;DHT22;7750;48.796;9.026;2022-08-19T01:55:16;24.10;62.30
15298;DHT22;7750;48.796;9.026;2022-08-19T02:00:21;24.10;62.40
15298;DHT22;7750;48.796;9.026;2022-08-19T02:05:23;24.00;62.40
15298;DHT22;7750;48.796;9.026;2022-08-19T02:10:24;24.00;62.50
15298;DHT22;7750;48.796;9.026;2022-08-19T02:15:25;24.00;62.70
15298;DHT22;7750;48.796;9.026;2022-08-19T02:20:26;23.90;63.00
15298;DHT22;7750;48.796;9.026;2022-08-19T02:25:27;23.90;63.10
15298;DHT22;7750;48.796;9.026;2022-08-19T02:30:27;23.80;63.20
15298;DHT22;7750;48.796;9.026;2022-08-19T02:35:28;23.80;63.50
15298;DHT22;7750;48.796;9.026;2022-08-19T02:40:30;23.80;63.60
15298;DHT22;7750;48.796;9.026;2022-08-19T02:45:36;23.70;63.90
15298;DHT22;7750;48.796;9.026;2022-08-19T02:50:38;23.70;63.90
15298;DHT22;7750;48.796;9.026;2022-08-19T02:55:44;23.70;63.90
15298;DHT22;7750;48.796;9.026;2022-08-19T03:00:50;23.60;64.30
15298;DHT22;7750;48.796;9.026;2022-08-19T03:05:51;23.60;64.30
15298;DHT22;7750;48.796;9.026;2022-08-19T03:10:52;23.60;64.30
15298;DHT22;7750;48.796;9.026;2022-08-19T03:15:53;23.60;64.40
15298;DHT22;7750;48.796;9.026;2022-08-19T03:20:54;23.60;64.60
15298;DHT22;7750;48.796;9.026;2022-08-19T03:25:54;23.60;64.50
15298;DHT22;7750;48.796;9.026;2022-08-19T03:31:02;23.50;64.60
15298;DHT22;7750;48.796;9.026;2022-08-19T03:36:15;23.50;65.10
15298;DHT22;7750;48.796;9.026;2022-08-19T03:41:18;23.50;65.40
15298;DHT22;7750;48.796;9.026;2022-08-19T03:46:22;23.40;65.10
15298;DHT22;7750;48.796;9.026;2022-08-19T03:51:32;23.40;65.10
15298;DHT22;7750;48.796;9.026;2022-08-19T03:56:36;23.40;65.20
15298;DHT22;7750;48.796;9.026;2022-08-19T04:01:37;23.40;65.20
15298;DHT22;7750;48.796;9.026;2022-08-19T04:06:38;23.30;65.10
15298;DHT22;7750;48.796;9.026;2022-08-19T04:11:47;23.40;65.30
15298;DHT22;7750;48.796;9.026;2022-08-19T04:16:48;23.40;65.50
15298;DHT22;7750;48.796;9.026;2022-08-19T04:21:52;23.30;65.40
15298;DHT22;7750;48.796;9.026;2022-08-19T04:26:53;23.30;65.50
15298;DHT22;7750;48.796;9.026;2022-08-19T04:31:55;23.30;65.60
15298;DHT22;7750;48.796;9.026;2022-08-19T04:36:57;23.30;65.80
15298;DHT22;7750;48.796;9.026;2022-08-19T04:41:58;23.20;65.90
15298;DHT22;7750;48.796;9.026;2022-08-19T04:47:17;23.20;66.10
15298;DHT22;7750;48.796;9.026;2022-08-19T04:52:17;23.20;66.30
15298;DHT22;7750;48.796;9.026;2022-08-19T04:57:18;23.20;66.30
15298;DHT22;7750;48.796;9.026;2022-08-19T05:02:19;23.20;66.70
15298;DHT22;7750;48.796;9.026;2022-08-19T05:07:19;23.10;66.50
15298;DHT22;7750;48.796;9.026;2022-08-19T05:12:20;23.10;66.70
15298;DHT22;7750;48.796;9.026;2022-08-19T05:17:21;23.10;66.80
15298;DHT22;7750;48.796;9.026;2022-08-19T05:22:21;23.10;66.90
15298;DHT22;7750;48.796;9.026;2022-08-19T05:27:35;23.10;67.40
15298;DHT22;7750;48.796;9.026;2022-08-19T05:32:37;23.10;67.50
15298;DHT22;7750;48.796;9.026;2022-08-19T05:37:38;23.10;67.40
15298;DHT22;7750;48.796;9.026;2022-08-19T05:42:40;23.10;67.50
15298;DHT22;7750;48.796;9.026;2022-08-19T05:47:41;23.10;67.80
15298;DHT22;7750;48.796;9.026;2022-08-19T05:52:41;23.10;67.60
15298;DHT22;7750;48.796;9.026;2022-08-19T05:57:42;23.10;67.80
15298;DHT22;7750;48.796;9.026;2022-08-19T06:02:43;23.10;67.80
15298;DHT22;7750;48.796;9.026;2022-08-19T06:07:43;23.10;68.00
15298;DHT22;7750;48.796;9.026;2022-08-19T06:12:44;23.10;67.80
15298;DHT22;7750;48.796;9.026;2022-08-19T06:17:45;23.10;68.10
15298;DHT22;7750;48.796;9.026;2022-08-19T06:22:47;23.10;68.00
15298;DHT22;7750;48.796;9.026;2022-08-19T06:27:50;23.10;68.10
15298;DHT22;7750;48.796;9.026;2022-08-19T06:32:50;23.10;68.00
15298;DHT22;7750;48.796;9.026;2022-08-19T06:37:51;23.10;68.10
15298;DHT22;7750;48.796;9.026;2022-08-19T06:42:52;23.10;68.20
15298;DHT22;7750;48.796;9.026;2022-08-19T06:47:53;23.10;68.40
15298;DHT22;7750;48.796;9.026;2022-08-19T06:52:56;23.10;68.40
15298;DHT22;7750;48.796;9.026;2022-08-19T06:57:57;23.10;68.60
15298;DHT22;7750;48.796;9.026;2022-08-19T07:02:58;23.00;68.70
15298;DHT22;7750;48.796;9.026;2022-08-19T07:07:59;23.00;68.60
15298;DHT22;7750;48.796;9.026;2022-08-19T07:12:59;23.10;68.90
15298;DHT22;7750;48.796;9.026;2022-08-19T07:18:00;23.10;68.70
15298;DHT22;7750;48.796;9.026;2022-08-19T07:23:03;23.10;68.80
15298;DHT22;7750;48.796;9.026;2022-08-19T07:28:04;23.20;68.70
15298;DHT22;7750;48.796;9.026;2022-08-19T07:33:05;23.20;68.60
15298;DHT22;7750;48.796;9.026;2022-08-19T07:38:06;23.30;68.60
15298;DHT22;7750;48.796;9.026;2022-08-19T07:43:07;23.40;68.60
15298;DHT22;7750;48.796;9.026;2022-08-19T07:48:08;23.40;68.50
15298;DHT22;7750;48.796;9.026;2022-08-19T07:53:09;23.40;68.50
15298;DHT22;7750;48.796;9.026;2022-08-19T07:58:12;23.40;68.50
15298;DHT22;7750;48.796;9.026;2022-08-19T08:03:15;23.50;68.60
15298;DHT22;7750;48.796;9.026;2022-08-19T08:08:16;23.50;68.40
15298;DHT22;7750;48.796;9.026;2022-08-19T08:13:31;23.60;68.50
15298;DHT22;7750;48.796;9.026;2022-08-19T08:18:35;23.60;68.40
15298;DHT22;7750;48.796;9.026;2022-08-19T08:23:41;23.50;68.20
15298;DHT22;7750;48.796;9.026;2022-08-19T08:28:43;23.50;68.20
15298;DHT22;7750;48.796;9.026;2022-08-19T08:33:43;23.50;68.10
15298;DHT22;7750;48.796;9.026;2022-08-19T08:38:44;23.50;68.10
15298;DHT22;7750;48.796;9.026;2022-08-19T08:43:48;23.50;68.20
15298;DHT22;7750;48.796;9.026;2022-08-19T08:48:57;23.50;68.30
15298;DHT22;7750;48.796;9.026;2022-08-19T08:53:58;23.50;68.40
15298;DHT22;7750;48.796;9.026;2022-08-19T08:59:07;23.60;68.60
15298;DHT22;7750;48.796;9.026;2022-08-19T09:04:12;23.60;68.50
15298;DHT22;7750;48.796;9.026;2022-08-19T09:19:54;23.70;68.60
15298;DHT22;7750;48.796;9.026;2022-08-19T09:24:55;23.80;68.40
15298;DHT22;7750;48.796;9.026;2022-08-19T09:29:56;23.90;68.50
15298;DHT22;7750;48.796;9.026;2022-08-19T09:34:57;23.90;68.40
15298;DHT22;7750;48.796;9.026;2022-08-19T09:39:58;24.00;68.50
15298;DHT22;7750;48.796;9.026;2022-08-19T09:44:59;24.10;68.40
15298;DHT22;7750;48.796;9.026;2022-08-19T09:49:59;24.10;68.40
15298;DHT22;7750;48.796;9.026;2022-08-19T09:55:00;24.20;68.20
15298;DHT22;7750;48.796;9.026;2022-08-19T10:00:02;24.30;68.00
15298;DHT22;7750;48.796;9.026;2022-08-19T10:05:03;24.40;67.70
15298;DHT22;7750;48.796;9.026;2022-08-19T10:10:23;24.40;67.60
15298;DHT22;7750;48.796;9.026;2022-08-19T10:15:24;24.40;67.60
15298;DHT22;7750;48.796;9.026;2022-08-19T10:20:25;24.40;67.30
15298;DHT22;7750;48.796;9.026;2022-08-19T10:25:25;24.50;67.10
15298;DHT22;7750;48.796;9.026;2022-08-19T10:30:27;24.50;67.00
15298;DHT22;7750;48.796;9.026;2022-08-19T10:35:28;24.50;66.90
15298;DHT22;7750;48.796;9.026;2022-08-19T10:40:29;24.60;66.80
15298;DHT22;7750;48.796;9.026;2022-08-19T10:45:30;24.60;66.80
15298;DHT22;7750;48.796;9.026;2022-08-19T10:50:31;24.60;66.70
15298;DHT22;7750;48.796;9.026;2022-08-19T10:55:50;24.70;66.40
15298;DHT22;7750;48.796;9.026;2022-08-19T11:01:09;24.80;65.80
15298;DHT22;7750;48.796;9.026;2022-08-19T11:06:10;24.90;65.50
15298;DHT22;7750;48.796;9.026;2022-08-19T11:11:12;25.10;65.50
15298;DHT22;7750;48.796;9.026;2022-08-19T11:16:16;25.20;64.40
15298;DHT22;7750;48.796;9.026;2022-08-19T11:21:24;25.30;64.60
15298;DHT22;7750;48.796;9.026;2022-08-19T11:26:26;25.40;64.20
15298;DHT22;7750;48.796;9.026;2022-08-19T11:31:30;25.50;64.30
15298;DHT22;7750;48.796;9.026;2022-08-19T11:36:34;25.60;64.20
15298;DHT22;7750;48.796;9.026;2022-08-19T11:41:37;25.60;63.70
15298;DHT22;7750;48.796;9.026;2022-08-19T11:46:38;25.70;63.30
15298;DHT22;7750;48.796;9.026;2022-08-19T11:51:39;25.80;62.20
15298;DHT22;7750;48.796;9.026;2022-08-19T11:56:43;25.90;61.80
15298;DHT22;7750;48.796;9.026;2022-08-19T12:01:44;25.90;61.30
15298;DHT22;7750;48.796;9.026;2022-08-19T12:06:44;26.00;60.90
15298;DHT22;7750;48.796;9.026;2022-08-19T12:11:45;26.10;59.90
15298;DHT22;7750;48.796;9.026;2022-08-19T12:16:46;26.20;59.70
15298;DHT22;7750;48.796;9.026;2022-08-19T12:21:47;26.20;59.90
15298;DHT22;7750;48.796;9.026;2022-08-19T12:26:48;26.30;59.80
15298;DHT22;7750;48.796;9.026;2022-08-19T12:31:49;26.50;60.00
15298;DHT22;7750;48.796;9.026;2022-08-19T12:36:49;26.60;59.00
15298;DHT22;7750;48.796;9.026;2022-08-19T12:41:50;26.60;58.40
15298;DHT22;7750;48.796;9.026;2022-08-19T12:46:51;26.70;57.80
15298;DHT22;7750;48.796;9.026;2022-08-19T12:51:52;26.80;58.00
15298;DHT22;7750;48.796;9.026;2022-08-19T12:56:52;26.80;57.60
15298;DHT22;7750;48.796;9.026;2022-08-19T13:01:54;26.80;56.90
15298;DHT22;7750;48.796;9.026;2022-08-19T13:06:55;26.90;56.90
15298;DHT22;7750;48.796;9.026;2022-08-19T13:11:55;26.90;56.50
15298;DHT22;7750;48.796;9.026;2022-08-19T13:16:57;27.00;57.00
15298;DHT22;7750;48.796;9.026;2022-08-19T13:21:57;27.10;56.60
15298;DHT22;7750;48.796;9.026;2022-08-19T13:27:00;27.20;56.10
15298;DHT22;7750;48.796;9.026;2022-08-19T13:32:01;27.30;55.80
15298;DHT22;7750;48.796;9.026;2022-08-19T13:37:20;27.30;55.60
15298;DHT22;7750;48.796;9.026;2022-08-19T13:42:42;27.40;55.60
15298;DHT22;7750;48.796;9.026;2022-08-19T13:47:46;27.40;55.00
15298;DHT22;7750;48.796;9.026;2022-08-19T13:52:49;27.40;54.00
15298;DHT22;7750;48.796;9.026;2022-08-19T13:57:55;27.50;53.70
15298;DHT22;7750;48.796;9.026;2022-08-19T14:02:56;27.50;54.10
15298;DHT22;7750;48.796;9.026;2022-08-19T14:07:58;27.60;53.50
15298;DHT22;7750;48.796;9.026;2022-08-19T14:13:02;27.70;52.90
15298;DHT22;7750;48.796;9.026;2022-08-19T14:18:03;27.80;52.80
15298;DHT22;7750;48.796;9.026;2022-08-19T14:23:04;27.80;53.00
15298;DHT22;7750;48.796;9.026;2022-08-19T14:28:07;27.80;52.80
15298;DHT22;7750;48.796;9.026;2022-08-19T14:33:08;27.90;53.30
15298;DHT22;7750;48.796;9.026;2022-08-19T14:38:15;27.90;53.80
15298;DHT22;7750;48.796;9.026;2022-08-19T14:43:16;28.10;53.30
15298;DHT22;7750;48.796;9.026;2022-08-19T14:48:18;28.10;52.90
15298;DHT22;7750;48.796;9.026;2022-08-19T14:53:19;28.20;52.50
15298;DHT22;7750;48.796;9.026;2022-08-19T14:58:19;28.20;52.70
15298;DHT22;7750;48.796;9.026;2022-08-19T15:03:20;28.20;52.10
15298;DHT22;7750;48.796;9.026;2022-08-19T15:08:21;28.20;52.40
15298;DHT22;7750;48.796;9.026;2022-08-19T15:13:23;28.30;52.10
15298;DHT22;7750;48.796;9.026;2022-08-19T15:18:24;28.30;52.00
15298;DHT22;7750;48.796;9.026;2022-08-19T15:23:25;28.50;52.50
15298;DHT22;7750;48.796;9.026;2022-08-19T15:28:26;28.80;52.50
15298;DHT22;7750;48.796;9.026;2022-08-19T15:33:27;29.00;50.90
15298;DHT22;7750;48.796;9.026;2022-08-19T15:38:27;29.20;49.60
15298;DHT22;7750;48.796;9.026;2022-08-19T15:43:28;29.40;49.40
15298;DHT22;7750;48.796;9.026;2022-08-19T15:48:29;29.50;48.60
15298;DHT22;7750;48.796;9.026;2022-08-19T15:53:29;29.50;47.90
15298;DHT22;7750;48.796;9.026;2022-08-19T15:58:30;29.50;47.70
15298;DHT22;7750;48.796;9.026;2022-08-19T16:03:50;29.50;48.00
15298;DHT22;7750;48.796;9.026;2022-08-19T16:09:10;29.50;47.50
15298;DHT22;7750;48.796;9.026;2022-08-19T16:14:10;29.40;47.60
15298;DHT22;7750;48.796;9.026;2022-08-19T16:19:13;29.40;47.70
15298;DHT22;7750;48.796;9.026;2022-08-19T16:24:17;29.40;47.70
15298;DHT22;7750;48.796;9.026;2022-08-19T16:29:19;29.30;47.30
15298;DHT22;7750;48.796;9.026;2022-08-19T16:34:20;29.30;47.70
15298;DHT22;7750;48.796;9.026;2022-08-19T16:39:21;29.20;47.50
15298;DHT22;7750;48.796;9.026;2022-08-19T16:44:23;29.10;47.80
15298;DHT22;7750;48.796;9.026;2022-08-19T16:49:24;29.10;47.90
15298;DHT22;7750;48.796;9.026;2022-08-19T16:54:25;29.00;48.00
15298;DHT22;7750;48.796;9.026;2022-08-19T16:59:26;28.80;48.60
15298;DHT22;7750;48.796;9.026;2022-08-19T17:04:27;28.80;48.70
15298;DHT22;7750;48.796;9.026;2022-08-19T17:09:28;28.70;50.50
15298;DHT22;7750;48.796;9.026;2022-08-19T17:14:29;28.60;51.20
15298;DHT22;7750;48.796;9.026;2022-08-19T17:19:29;28.60;51.00
15298;DHT22;7750;48.796;9.026;2022-08-19T17:24:30;28.50;51.50
15298;DHT22;7750;48.796;9.026;2022-08-19T17:29:32;28.50;51.60
15298;DHT22;7750;48.796;9.026;2022-08-19T17:34:33;28.40;50.90
15298;DHT22;7750;48.796;9.026;2022-08-19T17:39:33;28.40;51.30
15298;DHT22;7750;48.796;9.026;2022-08-19T17:44:34;28.30;51.50
15298;DHT22;7750;48.796;9.026;2022-08-19T17:49:35;28.40;51.90
15298;DHT22;7750;48.796;9.026;2022-08-19T17:54:36;28.40;51.80
15298;DHT22;7750;48.796;9.026;2022-08-19T17:59:38;28.40;51.70
15298;DHT22;7750;48.796;9.026;2022-08-19T18:04:38;28.40;52.10
15298;DHT22;7750;48.796;9.026;2022-08-19T18:09:40;28.40;52.00
15298;DHT22;7750;48.796;9.026;2022-08-19T18:14:41;28.30;52.30
15298;DHT22;7750;48.796;9.026;2022-08-19T18:19:42;28.20;52.70
15298;DHT22;7750;48.796;9.026;2022-08-19T18:24:42;28.10;52.80
15298;DHT22;7750;48.796;9.026;2022-08-19T18:29:44;28.10;52.80
15298;DHT22;7750;48.796;9.026;2022-08-19T18:34:44;28.00;53.00
15298;DHT22;7750;48.796;9.026;2022-08-19T18:39:45;27.90;53.20
15298;DHT22;7750;48.796;9.026;2022-08-19T18:45:05;27.80;53.20
15298;DHT22;7750;48.796;9.026;2022-08-19T18:50:24;27.60;53.50
15298;DHT22;7750;48.796;9.026;2022-08-19T18:55:25;27.40;52.70
15298;DHT22;7750;48.796;9.026;2022-08-19T19:00:29;27.30;53.00
15298;DHT22;7750;48.796;9.026;2022-08-19T19:05:30;27.10;53.50
15298;DHT22;7750;48.796;9.026;2022-08-19T19:10:32;27.00;54.00
15298;DHT22;7750;48.796;9.026;2022-08-19T19:15:34;26.90;53.10
15298;DHT22;7750;48.796;9.026;2022-08-19T19:20:36;26.70;53.00
15298;DHT22;7750;48.796;9.026;2022-08-19T19:25:36;26.60;53.10
15298;DHT22;7750;48.796;9.026;2022-08-19T19:30:38;26.50;53.00
15298;DHT22;7750;48.796;9.026;2022-08-19T19:35:39;26.40;53.00
15298;DHT22;7750;48.796;9.026;2022-08-19T19:40:40;26.40;53.20
15298;DHT22;7750;48.796;9.026;2022-08-19T19:45:41;26.30;53.00
15298;DHT22;7750;48.796;9.026;2022-08-19T19:50:42;26.30;52.90
15298;DHT22;7750;48.796;9.026;2022-08-19T19:55:43;26.20;53.30
15298;DHT22;7750;48.796;9.026;2022-08-19T20:05:45;26.10;52.00
15298;DHT22;7750;48.796;9.026;2022-08-19T20:10:46;26.10;52.40
15298;DHT22;7750;48.796;9.026;2022-08-19T20:15:47;26.10;52.30
15298;DHT22;7750;48.796;9.026;2022-08-19T20:20:48;26.00;52.30
15298;DHT22;7750;48.796;9.026;2022-08-19T20:25:49;26.00;52.40
15298;DHT22;7750;48.796;9.026;2022-08-19T20:30:50;25.90;52.40
15298;DHT22;7750;48.796;9.026;2022-08-19T20:35:51;25.90;52.50
15298;DHT22;7750;48.796;9.026;2022-08-19T20:40:51;25.90;52.60
15298;DHT22;7750;48.796;9.026;2022-08-19T20:45:53;25.90;52.70
15298;DHT22;7750;48.796;9.026;2022-08-19T20:50:54;25.80;52.70
15298;DHT22;7750;48.796;9.026;2022-08-19T20:55:58;25.80;52.90
15298;DHT22;7750;48.796;9.026;2022-08-19T21:01:01;25.70;53.00
15298;DHT22;7750;48.796;9.026;2022-08-19T21:06:02;25.70;53.20
15298;DHT22;7750;48.796;9.026;2022-08-19T21:11:04;25.70;53.30
15298;DHT22;7750;48.796;9.026;2022-08-19T21:16:06;25.60;53.50
15298;DHT22;7750;48.796;9.026;2022-08-19T21:21:06;25.60;53.60
15298;DHT22;7750;48.796;9.026;2022-08-19T21:26:07;25.60;53.90
15298;DHT22;7750;48.796;9.026;2022-08-19T21:31:08;25.60;54.30
15298;DHT22;7750;48.796;9.026;2022-08-19T21:36:14;25.60;54.90
15298;DHT22;7750;48.796;9.026;2022-08-19T21:41:15;25.50;55.30
15298;DHT22;7750;48.796;9.026;2022-08-19T21:46:15;25.50;55.90
15298;DHT22;7750;48.796;9.026;2022-08-19T21:51:16;25.40;56.40
15298;DHT22;7750;48.796;9.026;2022-08-19T21:56:16;25.40;56.70
15298;DHT22;7750;48.796;9.026;2022-08-19T22:01:17;25.40;56.90
15298;DHT22;7750;48.796;9.026;2022-08-19T22:06:18;25.30;57.10
15298;DHT22;7750;48.796;9.026;2022-08-19T22:11:19;25.30;57.20
15298;DHT22;7750;48.796;9.026;2022-08-19T22:16:20;25.30;57.40
15298;DHT22;7750;48.796;9.026;2022-08-19T22:21:21;25.30;57.60
15298;DHT22;7750;48.796;9.026;2022-08-19T22:26:21;25.30;57.70
15298;DHT22;7750;48.796;9.026;2022-08-19T22:31:22;25.30;57.80
15298;DHT22;7750;48.796;9.026;2022-08-19T22:36:23;25.20;57.90
15298;DHT22;7750;48.796;9.026;2022-08-19T22:41:24;25.20;58.00
15298;DHT22;7750;48.796;9.026;2022-08-19T22:46:24;25.20;58.10
15298;DHT22;7750;48.796;9.026;2022-08-19T22:51:25;25.20;58.10
15298;DHT22;7750;48.796;9.026;2022-08-19T22:56:44;25.10;58.00
15298;DHT22;7750;48.796;9.026;2022-08-19T23:01:45;25.10;58.10
15298;DHT22;7750;48.796;9.026;2022-08-19T23:06:45;25.10;58.20
15298;DHT22;7750;48.796;9.026;2022-08-19T23:11:46;25.00;58.30
15298;DHT22;7750;48.796;9.026;2022-08-19T23:16:47;25.00;58.30
15298;DHT22;7750;48.796;9.026;2022-08-19T23:21:48;25.00;58.40
15298;DHT22;7750;48.796;9.026;2022-08-19T23:26:49;24.90;58.80
15298;DHT22;7750;48.796;9.026;2022-08-19T23:32:08;24.80;58.60
15298;DHT22;7750;48.796;9.026;2022-08-19T23:37:09;24.80;58.90
15298;DHT22;7750;48.796;9.026;2022-08-19T23:42:10;24.70;59.00
15298;DHT22;7750;48.796;9.026;2022-08-19T23:47:11;24.60;59.30
15298;DHT22;7750;48.796;9.026;2022-08-19T23:52:12;24.50;59.60
15298;DHT22;7750;48.796;9.026;2022-08-19T23:57:13;24.40;59.70
